Time;durP1;ratioP1;P1;durP2;ratioP2;P2;SDS_P1;SDS_P2;PMS_P1;PMS_P2;Temp;Humidity;BMP_temperature;BMP_pressure;BME280_temperature;BME280_humidity;BME280_pressure;Samples;Min_cycle;Max_cycle;Signal;HPM_P1;HPM_P2
2022/10/06 00:02:20;;;;;;;3.87;2.27;;;20.50;62.70;;;-142.21;81.81;112049.66;5112128;28;20286;-71
2022/10/06 00:04:47;;;;;;;4.13;2.30;;;20.40;62.60;;;-142.21;83.37;112049.66;5111947;28;20203;-71
2022/10/06 00:07:15;;;;;;;2.83;2.33;;;20.20;63.50;;;-142.21;84.54;112049.66;5112083;28;20354;-71
2022/10/06 00:09:42;;;;;;;4.70;2.83;;;20.30;63.00;;;-142.21;85.87;112049.66;5111907;28;20207;-71
2022/10/06 00:12:11;;;;;;;5.90;2.67;;;20.30;64.10;;;-142.21;85.22;112049.66;5094341;28;20295;-70
2022/10/06 00:14:38;;;;;;;3.47;2.80;;;20.30;65.00;;;-142.21;84.67;112049.66;5116278;28;20234;-70
2022/10/06 00:17:05;;;;;;;6.40;2.70;;;20.30;65.20;;;-142.21;84.06;112049.66;5115146;28;20303;-70
2022/10/06 00:19:32;;;;;;;3.57;2.30;;;20.40;65.20;;;-142.21;83.99;112049.66;5116151;28;20286;-70
2022/10/06 00:21:59;;;;;;;4.17;2.63;;;20.40;65.10;;;-142.21;84.13;112049.66;5115597;28;20295;-70
2022/10/06 00:24:26;;;;;;;3.57;2.50;;;20.50;65.10;;;-142.21;84.25;112049.66;5115358;28;20685;-70
2022/10/06 00:26:53;;;;;;;2.63;2.43;;;20.60;65.20;;;-142.21;83.73;112049.66;5115291;28;20208;-70
2022/10/06 00:29:22;;;;;;;3.50;2.20;;;20.60;65.00;;;-142.21;83.65;112049.66;5115929;28;20234;-70
2022/10/06 00:31:52;;;;;;;4.47;2.70;;;20.70;65.60;;;-142.21;83.49;112049.66;5115309;28;20203;-70
2022/10/06 00:34:19;;;;;;;5.53;2.67;;;20.70;64.40;;;-142.21;83.53;112049.66;5115950;28;20839;-70
2022/10/06 00:36:46;;;;;;;3.53;2.60;;;20.80;64.10;;;-142.21;81.68;112049.66;5115874;28;20353;-70
2022/10/06 00:39:13;;;;;;;3.73;2.60;;;20.60;63.20;;;-142.21;82.74;112049.66;5114608;28;20267;-70
2022/10/06 00:41:40;;;;;;;3.53;3.00;;;20.40;62.90;;;-142.21;84.57;112049.66;5115320;28;20204;-70
2022/10/06 00:44:07;;;;;;;4.87;2.37;;;20.20;64.20;;;-142.21;85.78;112049.66;5114867;28;20268;-70
2022/10/06 00:46:43;;;;;;;2.73;2.43;;;20.00;63.80;;;-142.21;86.39;112049.66;5115494;28;20311;-70
2022/10/06 00:49:19;;;;;;;3.77;2.47;;;20.00;64.30;;;-142.21;86.81;112049.66;5115018;28;20278;-70
2022/10/06 00:51:51;;;;;;;4.40;2.27;;;20.00;64.20;;;-142.21;87.04;112049.66;5115552;28;20216;-70
2022/10/06 00:54:19;;;;;;;5.03;2.50;;;20.00;64.40;;;-142.21;87.88;112049.66;5115378;28;20208;-70
2022/10/06 00:56:49;;;;;;;2.43;2.20;;;20.00;64.20;;;-142.21;87.79;112049.66;5115222;28;20235;-70
2022/10/06 00:59:19;;;;;;;3.77;2.47;;;19.90;64.20;;;-142.21;87.96;112049.66;5115887;28;20199;-70
2022/10/06 01:01:56;;;;;;;5.70;2.50;;;19.80;64.20;;;-142.21;88.31;112049.66;5115228;28;20290;-70
2022/10/06 01:04:25;;;;;;;7.60;2.77;;;19.70;64.50;;;-142.21;88.44;112049.66;5115139;28;20180;-70
2022/10/06 01:06:57;;;;;;;6.63;2.87;;;19.70;64.70;;;-142.21;88.49;112049.66;5114783;28;20199;-70
2022/10/06 01:09:25;;;;;;;3.30;2.57;;;19.60;64.80;;;-142.21;88.48;112049.66;5115016;28;20207;-70
2022/10/06 01:11:59;;;;;;;3.10;2.20;;;19.60;65.00;;;-142.21;88.54;112049.66;5114689;28;20294;-70
2022/10/06 01:14:27;;;;;;;6.00;2.70;;;19.50;65.20;;;-142.21;89.20;112049.66;5115081;28;20208;-70
2022/10/06 01:17:01;;;;;;;4.77;2.30;;;19.50;65.20;;;-142.21;89.35;112049.66;5114141;28;20204;-70
2022/10/06 01:19:46;;;;;;;3.50;2.77;;;19.60;65.40;;;-142.21;89.28;112049.66;5114751;28;20275;-70
2022/10/06 01:22:16;;;;;;;5.30;2.40;;;19.50;65.50;;;-142.21;89.14;112049.66;5113153;28;20196;-70
2022/10/06 01:24:51;;;;;;;4.17;2.70;;;19.60;65.50;;;-142.21;89.01;112049.66;5114305;28;20207;-70
2022/10/06 01:27:20;;;;;;;6.20;2.50;;;19.50;65.90;;;-142.21;89.17;112049.66;5114653;28;20244;-70
2022/10/06 01:29:53;;;;;;;3.13;2.70;;;19.60;65.70;;;-142.21;89.21;112049.66;5114327;28;20227;-70
2022/10/06 01:32:21;;;;;;;3.30;2.60;;;19.50;65.80;;;-142.21;89.64;112049.66;5114518;28;20192;-71
2022/10/06 01:34:48;;;;;;;3.33;2.83;;;19.50;66.00;;;-142.21;89.96;112049.66;5114332;28;20312;-71
2022/10/06 01:37:15;;;;;;;3.87;2.60;;;19.40;66.30;;;-142.21;90.76;112049.66;5113797;28;20211;-70
2022/10/06 01:39:42;;;;;;;2.83;2.53;;;19.30;66.60;;;-142.21;90.98;112049.66;5113999;28;20231;-70
2022/10/06 01:42:11;;;;;;;2.90;2.53;;;19.30;66.70;;;-142.21;91.39;112049.66;5113784;28;20207;-71
2022/10/06 01:44:38;;;;;;;5.23;3.00;;;19.30;67.20;;;-142.21;91.74;112049.66;5114242;28;20208;-70
2022/10/06 01:47:06;;;;;;;3.30;2.57;;;19.20;67.30;;;-142.21;91.82;112049.66;5114123;28;20211;-70
2022/10/06 01:49:33;;;;;;;6.33;2.83;;;19.30;67.50;;;-142.21;91.82;112049.66;5113988;28;20210;-70
2022/10/06 01:52:01;;;;;;;3.10;2.77;;;19.20;67.50;;;-142.21;92.01;112049.66;5113546;28;20210;-70
2022/10/06 01:54:28;;;;;;;3.53;2.73;;;19.20;67.50;;;-142.21;92.13;112049.66;5114126;28;20223;-70
2022/10/06 01:56:55;;;;;;;7.00;2.80;;;19.20;67.70;;;-142.21;92.32;112049.66;5113359;28;20239;-70
2022/10/06 01:59:24;;;;;;;4.37;2.60;;;19.20;67.70;;;-142.21;92.79;112049.66;5113957;28;20782;-71
2022/10/06 02:01:52;;;;;;;4.57;3.33;;;19.30;67.70;;;-142.21;92.93;112049.66;5114307;28;20195;-70
2022/10/06 02:04:19;;;;;;;3.67;3.20;;;19.30;67.60;;;-142.21;93.26;112049.66;5113359;28;20210;-71
2022/10/06 02:06:46;;;;;;;5.37;2.70;;;19.40;67.50;;;-142.21;93.49;112049.66;5114168;28;20207;-70
2022/10/06 02:09:14;;;;;;;3.47;2.83;;;19.40;67.50;;;-142.21;93.77;112049.66;5113316;28;20212;-69
2022/10/06 02:11:40;;;;;;;3.00;2.53;;;19.40;67.60;;;-142.21;93.67;112049.66;5113919;28;20294;-70
2022/10/06 02:14:08;;;;;;;5.33;2.80;;;19.40;67.70;;;-142.21;94.05;112049.66;5113091;28;20227;-70
2022/10/06 02:16:36;;;;;;;6.10;3.00;;;19.40;67.70;;;-142.21;93.50;112049.66;5113768;28;20299;-70
2022/10/06 02:19:05;;;;;;;7.50;2.50;;;19.40;67.80;;;-142.21;93.49;112049.66;5112958;28;20605;-71
2022/10/06 02:21:34;;;;;;;4.10;3.10;;;19.40;67.50;;;-142.21;93.30;112049.66;5113920;28;20447;-71
2022/10/06 02:24:01;;;;;;;3.27;2.50;;;19.40;67.60;;;-142.21;92.82;112049.66;5113109;28;20203;-70
2022/10/06 02:26:28;;;;;;;3.20;2.30;;;19.50;67.60;;;-142.21;92.73;112049.66;5113679;28;20640;-70
2022/10/06 02:28:55;;;;;;;3.90;2.50;;;19.50;67.50;;;-142.21;92.44;112049.66;5112962;28;20219;-71
2022/10/06 02:31:22;;;;;;;4.40;3.23;;;19.50;68.30;;;-142.21;91.95;112049.66;5113248;28;20203;-71
2022/10/06 02:33:51;;;;;;;2.63;2.30;;;19.50;67.60;;;-142.21;91.74;112049.66;5113525;28;20437;-71
2022/10/06 02:36:21;;;;;;;3.30;2.70;;;19.50;67.50;;;-142.21;91.61;112049.66;5112262;28;20207;-71
2022/10/06 02:38:48;;;;;;;3.23;2.87;;;19.50;67.60;;;-142.21;91.81;112049.66;5112944;28;20718;-71
2022/10/06 02:41:15;;;;;;;4.83;2.63;;;19.60;67.50;;;-142.21;91.46;112049.66;5112924;28;20192;-71
2022/10/06 02:43:42;;;;;;;3.63;2.70;;;19.70;67.30;;;-142.21;91.30;112049.66;5113507;28;20211;-71
2022/10/06 02:46:13;;;;;;;4.37;2.63;;;19.70;67.30;;;-142.21;91.04;112049.66;5112626;28;20211;-69
2022/10/06 02:48:41;;;;;;;4.03;2.50;;;19.70;67.50;;;-142.21;91.03;112049.66;5113073;28;20203;-70
2022/10/06 02:51:15;;;;;;;4.30;2.50;;;19.80;67.30;;;-142.21;91.00;112049.66;5112250;28;20655;-69
2022/10/06 02:53:43;;;;;;;4.50;2.23;;;19.80;67.30;;;-142.21;90.85;112049.66;5113206;28;20188;-69
2022/10/06 02:56:14;;;;;;;5.23;2.93;;;19.90;67.30;;;-142.21;90.63;112049.66;5094441;28;20224;-69
2022/10/06 02:58:43;;;;;;;4.57;2.90;;;19.90;67.20;;;-142.21;90.63;112049.66;5112864;28;20191;-69
2022/10/06 03:01:12;;;;;;;4.17;2.70;;;19.90;67.10;;;-142.21;90.58;112049.66;5112514;28;20235;-70
2022/10/06 03:03:40;;;;;;;3.40;3.10;;;19.90;67.30;;;-142.21;90.55;112049.66;5112604;28;20441;-71
2022/10/06 03:06:21;;;;;;;3.90;2.70;;;19.90;67.50;;;-142.21;90.81;112049.66;5112285;28;20678;-70
2022/10/06 03:08:49;;;;;;;6.73;2.90;;;19.90;67.50;;;-142.21;91.24;112049.66;5112867;28;20204;-70
2022/10/06 03:11:18;;;;;;;4.67;3.20;;;19.90;67.40;;;-142.21;91.77;112049.66;5111967;28;20211;-70
2022/10/06 03:13:45;;;;;;;7.87;2.90;;;20.00;67.50;;;-142.21;92.35;112049.66;5112909;28;20308;-71
2022/10/06 03:16:17;;;;;;;7.20;2.97;;;19.90;67.50;;;-142.21;92.87;112049.66;5111583;28;20285;-69
2022/10/06 03:18:45;;;;;;;3.23;2.73;;;19.90;68.00;;;-142.21;92.82;112049.66;5112616;28;20680;-70
2022/10/06 03:21:15;;;;;;;5.13;3.00;;;19.90;67.80;;;-142.21;93.20;112049.66;5112008;28;20196;-69
2022/10/06 03:23:46;;;;;;;5.77;2.70;;;19.90;67.90;;;-142.21;93.46;112049.66;5112658;28;20299;-70
2022/10/06 03:26:16;;;;;;;4.47;2.57;;;19.90;68.80;;;-142.21;93.81;112049.66;5111996;28;20597;-69
2022/10/06 03:28:45;;;;;;;5.07;2.90;;;19.90;68.30;;;-142.21;94.11;112049.66;5112396;28;20580;-70
2022/10/06 03:31:13;;;;;;;2.77;2.43;;;19.90;68.30;;;-142.21;94.43;112049.66;5111454;28;20290;-70
2022/10/06 03:33:40;;;;;;;4.83;3.33;;;19.80;68.40;;;-142.21;94.74;112049.66;5112741;28;20211;-70
2022/10/06 03:36:11;;;;;;;4.17;2.80;;;19.80;68.50;;;-142.21;95.24;112049.66;5111265;28;20230;-70
2022/10/06 03:38:41;;;;;;;5.60;3.17;;;19.80;68.60;;;-142.21;95.43;112049.66;5112372;28;20210;-70
2022/10/06 03:41:12;;;;;;;5.40;2.90;;;19.80;68.70;;;-142.21;95.86;112049.66;5111552;28;20188;-70
2022/10/06 03:43:42;;;;;;;4.00;3.10;;;19.80;69.10;;;-142.21;95.78;112049.66;5112448;28;20199;-70
2022/10/06 03:46:15;;;;;;;4.93;3.10;;;19.80;69.10;;;-142.21;95.90;112049.66;5110857;28;20204;-70
2022/10/06 03:48:42;;;;;;;4.30;2.83;;;19.80;69.20;;;-142.21;96.37;112049.66;5111454;28;20201;-70
2022/10/06 03:51:13;;;;;;;4.37;3.23;;;19.80;69.10;;;-142.21;96.21;112049.66;5111703;28;20199;-70
2022/10/06 03:53:45;;;;;;;6.47;3.23;;;19.70;69.40;;;-142.21;97.05;112049.66;5112047;28;20190;-70
2022/10/06 03:56:15;;;;;;;3.90;2.93;;;19.70;69.80;;;-142.21;97.18;112049.66;5111425;28;20210;-70
2022/10/06 03:58:45;;;;;;;5.63;3.10;;;19.60;69.70;;;-142.21;97.07;112049.66;5112043;28;20547;-70
2022/10/06 04:01:16;;;;;;;3.33;2.73;;;19.70;69.90;;;-142.21;97.51;112049.66;5110935;28;20425;-69
2022/10/06 04:03:44;;;;;;;4.63;2.97;;;19.70;70.00;;;-142.21;97.60;112049.66;5111908;28;20212;-69
2022/10/06 04:06:16;;;;;;;4.07;3.10;;;19.70;70.00;;;-142.21;98.01;112049.66;5111282;28;20204;-70
2022/10/06 04:08:46;;;;;;;4.90;2.90;;;19.70;70.30;;;-142.21;98.07;112049.66;5111849;28;20196;-70
2022/10/06 04:11:16;;;;;;;5.23;2.90;;;19.70;70.30;;;-142.21;98.11;112049.66;5111465;28;20195;-70
2022/10/06 04:13:44;;;;;;;5.23;2.60;;;19.70;70.20;;;-142.21;98.37;112049.66;5112150;28;20279;-70
2022/10/06 04:16:15;;;;;;;6.33;4.10;;;19.70;70.20;;;-142.21;98.52;112049.66;5110952;28;20227;-70
2022/10/06 04:18:45;;;;;;;3.83;2.80;;;19.70;70.50;;;-142.21;98.55;112049.66;5111417;28;20226;-70
2022/10/06 04:21:13;;;;;;;5.10;2.90;;;19.60;70.50;;;-142.21;98.78;112049.66;5111038;28;20291;-70
2022/10/06 04:23:40;;;;;;;5.13;3.20;;;19.70;70.90;;;-142.21;99.06;112049.66;5111674;28;20199;-70
2022/10/06 04:26:13;;;;;;;4.00;3.40;;;19.70;70.90;;;-142.21;99.53;112049.66;5110930;28;20204;-71
2022/10/06 04:28:42;;;;;;;6.53;3.47;;;19.60;71.40;;;-142.21;99.97;112049.66;5111451;28;20303;-70
2022/10/06 04:31:15;;;;;;;6.10;3.70;;;19.50;71.70;;;-142.21;100.00;112049.66;5110581;28;20202;-70
2022/10/06 04:33:42;;;;;;;7.27;3.40;;;19.50;72.30;;;-142.21;100.00;112049.66;5111395;28;20188;-70
2022/10/06 04:36:14;;;;;;;4.63;2.93;;;19.40;72.60;;;-142.21;100.00;112049.66;5110893;28;20574;-70
2022/10/06 04:38:41;;;;;;;4.40;3.30;;;19.40;72.80;;;-142.21;100.00;112049.66;5111223;28;20211;-70
2022/10/06 04:41:14;;;;;;;5.73;3.23;;;19.50;72.70;;;-142.21;100.00;112049.66;5111146;28;20196;-71
2022/10/06 04:43:42;;;;;;;4.43;3.80;;;19.50;72.90;;;-142.21;100.00;112049.66;5111466;28;20532;-71
2022/10/06 04:46:10;;;;;;;5.03;3.20;;;19.60;72.70;;;-142.21;100.00;112049.66;5111055;28;20217;-70
2022/10/06 04:48:37;;;;;;;4.50;3.70;;;19.60;72.80;;;-142.21;100.00;112049.66;5111242;28;20200;-71
2022/10/06 04:51:08;;;;;;;6.27;3.13;;;19.60;72.80;;;-142.21;100.00;112049.66;5111064;28;20207;-71
2022/10/06 04:53:35;;;;;;;5.63;3.33;;;19.70;72.90;;;-142.21;100.00;112049.66;5111543;28;20230;-70
2022/10/06 04:56:04;;;;;;;5.93;3.37;;;19.70;72.70;;;-142.21;100.00;112049.66;5111118;28;20224;-71
2022/10/06 04:58:34;;;;;;;3.50;2.93;;;19.70;72.90;;;-142.21;100.00;112049.66;5112949;28;20290;-70
2022/10/06 05:01:04;;;;;;;4.23;3.40;;;19.70;73.20;;;-142.21;100.00;112049.66;5115255;28;20204;-70
2022/10/06 05:03:31;;;;;;;5.80;3.27;;;19.60;73.60;;;-142.21;100.00;112049.66;5115473;28;20405;-70
2022/10/06 05:06:07;;;;;;;5.60;3.60;;;19.60;73.90;;;-142.21;100.00;112049.66;5115170;28;20211;-70
2022/10/06 05:08:35;;;;;;;5.93;3.40;;;19.60;74.50;;;-142.21;100.00;112049.66;5115497;28;20203;-70
2022/10/06 05:11:04;;;;;;;3.87;3.50;;;19.50;74.60;;;-142.21;100.00;112049.66;5114905;28;20298;-70
2022/10/06 05:13:32;;;;;;;4.60;3.33;;;19.40;74.80;;;-142.21;100.00;112049.66;5114793;28;20210;-70
2022/10/06 05:16:01;;;;;;;4.90;3.53;;;19.40;75.40;;;-142.21;100.00;112049.66;5114817;28;20220;-70
2022/10/06 05:18:30;;;;;;;4.97;3.40;;;19.30;75.50;;;-142.21;100.00;112049.66;5114922;28;20298;-70
2022/10/06 05:20:58;;;;;;;6.13;3.40;;;19.20;76.00;;;-142.21;100.00;112049.66;5114740;28;20208;-70
2022/10/06 05:23:28;;;;;;;3.63;2.90;;;19.20;76.20;;;-142.21;100.00;112049.66;5114141;28;20264;-71
2022/10/06 05:25:58;;;;;;;4.13;2.97;;;19.10;76.50;;;-142.21;100.00;112049.66;5114847;28;20204;-70
2022/10/06 05:28:27;;;;;;;4.87;3.30;;;19.20;76.70;;;-142.21;100.00;112049.66;5113947;28;20223;-70
2022/10/06 05:30:58;;;;;;;7.57;3.57;;;19.10;77.00;;;-142.21;100.00;112049.66;5114522;28;20660;-69
2022/10/06 05:33:28;;;;;;;5.43;3.27;;;19.20;77.10;;;-142.21;100.00;112049.66;5113814;28;20434;-69
2022/10/06 05:36:01;;;;;;;6.17;3.50;;;19.20;77.00;;;-142.21;100.00;112049.66;5114617;28;20227;-70
2022/10/06 05:38:31;;;;;;;4.13;3.10;;;19.20;77.20;;;-142.21;100.00;112049.66;5113631;28;20212;-70
2022/10/06 05:41:03;;;;;;;4.80;3.67;;;19.10;77.10;;;-142.21;100.00;112049.66;5114319;28;20219;-70
2022/10/06 05:43:30;;;;;;;6.57;3.87;;;19.10;77.10;;;-142.21;100.00;112049.66;5114692;28;20298;-70
2022/10/06 05:46:01;;;;;;;7.57;3.13;;;19.10;77.30;;;-142.21;100.00;112049.66;5113966;28;20952;-70
2022/10/06 05:48:30;;;;;;;3.97;3.03;;;19.10;77.10;;;-142.21;100.00;112049.66;5113901;28;20196;-69
2022/10/06 05:51:02;;;;;;;5.10;3.07;;;19.10;76.10;;;-142.21;100.00;112049.66;5113888;28;20945;-70
2022/10/06 05:53:31;;;;;;;5.80;3.53;;;19.10;75.90;;;-142.21;100.00;112049.66;5113489;28;20206;-69
2022/10/06 05:56:07;;;;;;;6.47;3.10;;;19.00;75.30;;;-142.21;100.00;112049.66;5114209;28;20491;-69
2022/10/06 05:58:37;;;;;;;4.70;3.27;;;19.10;75.30;;;-142.21;100.00;112049.66;5114268;28;20203;-70
2022/10/06 06:01:12;;;;;;;6.97;2.80;;;19.00;75.20;;;-142.21;100.00;112049.66;5114243;28;20528;-70
2022/10/06 06:03:41;;;;;;;3.90;2.93;;;19.00;75.30;;;-142.21;100.00;112049.66;5114171;28;20532;-70
2022/10/06 06:06:18;;;;;;;5.70;2.97;;;19.10;75.30;;;-142.21;100.00;112049.66;5113468;28;20210;-70
2022/10/06 06:08:46;;;;;;;6.47;2.87;;;19.10;75.30;;;-142.21;100.00;112049.66;5114325;28;20207;-70
2022/10/06 06:11:16;;;;;;;4.73;3.17;;;19.10;75.20;;;-142.21;100.00;112049.66;5111999;28;20210;-70
2022/10/06 06:13:43;;;;;;;7.20;3.20;;;19.20;75.20;;;-142.21;100.00;112049.66;5113451;28;20204;-70
2022/10/06 06:16:14;;;;;;;6.13;3.00;;;19.30;75.10;;;-142.21;100.00;112049.66;5113266;28;20572;-70
2022/10/06 06:18:42;;;;;;;5.47;2.97;;;19.30;75.10;;;-142.21;100.00;112049.66;5113889;28;20195;-70
2022/10/06 06:21:10;;;;;;;7.10;3.30;;;19.30;74.70;;;-142.21;100.00;112049.66;5113134;28;20216;-70
2022/10/06 06:23:40;;;;;;;6.67;2.93;;;19.20;74.60;;;-142.21;100.00;112049.66;5113498;28;20297;-70
2022/10/06 06:26:12;;;;;;;4.57;3.00;;;19.20;74.80;;;-142.21;100.00;112049.66;5113211;28;20287;-70
2022/10/06 06:28:40;;;;;;;3.23;2.77;;;19.20;75.10;;;-142.21;100.00;112049.66;5113173;28;20227;-70
2022/10/06 06:31:10;;;;;;;7.13;2.60;;;19.20;75.10;;;-142.21;100.00;112049.66;5113702;28;20212;-70
2022/10/06 06:33:41;;;;;;;3.57;2.73;;;19.30;75.10;;;-142.21;100.00;112049.66;5113273;28;20250;-70
2022/10/06 06:36:17;;;;;;;3.33;2.60;;;19.30;74.70;;;-142.21;100.00;112049.66;5112896;28;20214;-70
2022/10/06 06:38:50;;;;;;;4.20;2.60;;;19.30;74.60;;;-142.21;100.00;112049.66;5112845;28;20578;-70
2022/10/06 06:41:20;;;;;;;3.03;2.40;;;19.40;74.20;;;-142.21;100.00;112049.66;5112678;28;20207;-70
2022/10/06 06:43:48;;;;;;;6.03;3.17;;;19.40;74.00;;;-142.21;100.00;112049.66;5113305;28;20203;-70
2022/10/06 06:46:18;;;;;;;4.97;2.67;;;19.40;73.90;;;-142.21;99.85;112049.66;5112771;28;20203;-70
2022/10/06 06:48:47;;;;;;;4.37;2.50;;;19.40;73.90;;;-142.21;99.26;112049.66;5113122;28;20249;-70
2022/10/06 06:51:14;;;;;;;4.70;2.63;;;19.30;73.80;;;-142.21;98.83;112049.66;5112586;28;20239;-70
2022/10/06 06:53:41;;;;;;;3.70;2.33;;;19.30;73.50;;;-142.21;98.40;112049.66;5112911;28;20203;-70
2022/10/06 06:56:09;;;;;;;5.47;2.60;;;19.30;73.30;;;-142.21;97.35;112049.66;5112537;28;20631;-70
2022/10/06 06:58:37;;;;;;;3.10;2.47;;;19.30;72.90;;;-142.21;97.21;112049.66;5112918;28;20630;-70
2022/10/06 07:01:10;;;;;;;2.43;2.17;;;19.30;72.70;;;-142.21;97.48;112049.66;5112816;28;20208;-70
2022/10/06 07:03:38;;;;;;;4.13;2.70;;;19.40;72.70;;;-142.21;96.11;112049.66;5112738;28;20184;-71
2022/10/06 07:06:09;;;;;;;5.63;2.20;;;19.50;72.70;;;-142.21;96.17;112049.66;5113011;28;20445;-69
2022/10/06 07:08:38;;;;;;;3.07;2.40;;;19.50;72.00;;;-142.21;95.75;112049.66;5112735;28;20246;-70
2022/10/06 07:11:14;;;;;;;7.17;2.40;;;19.40;71.50;;;-142.21;95.29;112049.66;5112516;28;20218;-69
2022/10/06 07:13:42;;;;;;;3.70;2.03;;;19.50;71.30;;;-142.21;94.81;112049.66;5112736;28;20219;-70
2022/10/06 07:27:18;;;;;;;2.87;2.13;;;19.50;70.20;;;-142.21;93.43;112049.66;5111723;28;20218;-70
2022/10/06 07:29:46;;;;;;;3.50;1.77;;;19.50;70.40;;;-142.21;93.16;112049.66;5112274;28;20224;-70
2022/10/06 07:32:13;;;;;;;3.70;1.80;;;19.40;70.40;;;-142.21;92.26;112049.66;5111652;28;20225;-71
2022/10/06 07:34:41;;;;;;;2.97;2.47;;;19.50;70.10;;;-142.21;92.90;112049.66;5112637;28;20648;-69
2022/10/06 07:37:09;;;;;;;2.47;2.07;;;19.50;70.20;;;-142.21;92.69;112049.66;5112473;28;20224;-69
2022/10/06 07:39:36;;;;;;;7.87;2.10;;;19.60;70.10;;;-142.21;92.44;112049.66;5111580;28;20293;-69
2022/10/06 07:42:07;;;;;;;2.10;1.90;;;19.60;69.80;;;-142.21;91.36;112049.66;5112240;28;20290;-71
2022/10/06 07:44:34;;;;;;;5.30;2.00;;;19.60;69.20;;;-142.21;92.18;112049.66;5111769;28;20184;-71
2022/10/06 07:47:02;;;;;;;4.73;1.83;;;19.60;69.80;;;-142.21;92.41;112049.66;5111832;28;20245;-70
2022/10/06 07:49:29;;;;;;;2.93;1.80;;;19.60;70.00;;;-142.21;92.53;112049.66;5111335;28;20929;-71
2022/10/06 07:51:57;;;;;;;3.60;1.80;;;19.70;69.80;;;-142.21;91.31;112049.66;5112213;28;20199;-71
2022/10/06 07:54:25;;;;;;;3.60;1.97;;;19.80;69.10;;;-142.21;89.88;112049.66;5111325;28;20218;-69
2022/10/06 07:56:53;;;;;;;3.73;1.70;;;19.90;68.40;;;-142.21;90.42;112049.66;5111985;28;20603;-69
2022/10/06 07:59:21;;;;;;;3.20;1.70;;;20.00;68.40;;;-142.21;88.13;112049.66;5111376;28;20249;-70
2022/10/06 08:01:50;;;;;;;3.77;1.67;;;20.10;67.20;;;-142.21;87.87;112049.66;5112108;28;20488;-69
2022/10/06 08:04:17;;;;;;;5.13;1.43;;;20.10;66.90;;;-142.21;85.78;112049.66;5111240;28;20663;-70
2022/10/06 08:06:46;;;;;;;3.60;1.60;;;20.00;65.90;;;-142.21;87.00;112049.66;5111333;28;20195;-70
2022/10/06 08:09:13;;;;;;;2.43;1.63;;;20.10;66.50;;;-142.21;86.25;112049.66;5111162;28;20299;-70
2022/10/06 08:11:43;;;;;;;2.90;1.70;;;20.20;66.10;;;-142.21;86.52;112049.66;5111556;28;20664;-70
2022/10/06 08:14:11;;;;;;;4.03;1.80;;;20.20;65.90;;;-142.21;86.50;112049.66;5111631;28;20632;-70
2022/10/06 08:16:40;;;;;;;4.93;1.60;;;20.30;66.00;;;-142.21;85.04;112049.66;5111936;28;20314;-70
2022/10/06 08:19:08;;;;;;;6.57;1.80;;;20.40;65.10;;;-142.21;84.38;112049.66;5111853;28;20207;-70
2022/10/06 08:21:35;;;;;;;3.20;1.40;;;20.40;64.70;;;-142.21;83.54;112049.66;5111075;28;20566;-70
2022/10/06 08:24:02;;;;;;;6.00;1.70;;;20.40;64.20;;;-142.21;81.93;112049.66;5111981;28;20211;-70
2022/10/06 08:26:32;;;;;;;4.47;1.40;;;20.20;63.50;;;-142.21;81.69;112049.66;5110832;28;20331;-70
2022/10/06 08:29:01;;;;;;;4.37;1.93;;;20.00;63.60;;;-142.21;82.42;112049.66;5111792;28;20231;-71
2022/10/06 08:31:30;;;;;;;5.13;1.70;;;19.90;64.20;;;-142.21;81.11;112049.66;5111225;28;20206;-71
2022/10/06 08:33:58;;;;;;;3.90;1.50;;;19.90;64.00;;;-142.21;82.26;112049.66;5114142;28;20301;-71
2022/10/06 08:36:28;;;;;;;4.97;1.23;;;20.10;64.20;;;-142.21;81.87;112049.66;5114777;28;20292;-70
2022/10/06 08:38:55;;;;;;;4.07;1.50;;;20.30;63.70;;;-142.21;81.38;112049.66;5115480;28;20251;-70
2022/10/06 08:41:31;;;;;;;6.17;1.80;;;20.30;63.40;;;-142.21;81.66;112049.66;5114829;28;20203;-69
2022/10/06 08:44:07;;;;;;;7.20;1.70;;;20.40;63.60;;;-142.21;79.51;112049.66;5115550;28;20237;-70
2022/10/06 08:46:45;;;;;;;4.93;1.90;;;20.40;62.30;;;-142.21;80.70;112049.66;5115125;28;20270;-70
2022/10/06 08:49:20;;;;;;;5.07;1.80;;;20.50;63.00;;;-142.21;81.11;112049.66;5115569;28;20192;-70
2022/10/06 08:52:01;;;;;;;4.33;1.63;;;20.70;62.90;;;-142.21;80.68;112049.66;5115430;28;20183;-71
2022/10/06 08:54:40;;;;;;;5.20;1.80;;;20.80;62.90;;;-142.21;82.05;112049.66;5114721;28;20210;-71
2022/10/06 08:57:20;;;;;;;2.57;1.53;;;20.90;63.10;;;-142.21;81.89;112049.66;5098090;28;20243;-70
2022/10/06 08:59:52;;;;;;;3.23;2.10;;;21.00;62.60;;;-142.21;81.88;112049.66;5115534;28;20188;-70
2022/10/06 09:02:31;;;;;;;3.17;1.40;;;21.10;62.60;;;-142.21;81.35;112049.66;5114642;28;20655;-70
2022/10/06 09:05:05;;;;;;;6.17;1.77;;;21.20;62.20;;;-142.21;81.16;112049.66;5114858;28;20662;-70
2022/10/06 09:07:47;;;;;;;7.33;1.70;;;21.30;62.20;;;-142.21;78.44;112049.66;5114403;28;20212;-71
2022/10/06 09:10:41;;;;;;;5.13;1.67;;;21.30;60.80;;;-142.21;77.37;112049.66;5115221;28;20231;-71
2022/10/06 09:13:16;;;;;;;3.53;1.80;;;21.00;60.00;;;-142.21;78.87;112049.66;5114984;28;20191;-70
2022/10/06 09:15:50;;;;;;;5.93;1.70;;;20.90;61.50;;;-142.21;79.48;112049.66;5114938;28;20597;-71
2022/10/06 09:18:26;;;;;;;4.23;1.80;;;20.90;61.70;;;-142.21;79.33;112049.66;5114639;28;20257;-71
2022/10/06 09:21:00;;;;;;;3.43;1.60;;;21.00;61.40;;;-142.21;80.59;112049.66;5114748;28;20555;-69
2022/10/06 09:26:29;;;;;;;4.23;1.90;;;21.40;61.30;;;-142.21;75.21;112049.66;5097878;28;20192;-70
2022/10/06 09:28:58;;;;;;;4.77;1.70;;;21.80;60.10;;;-142.21;74.43;112049.66;5114326;28;20224;-70
2022/10/06 09:31:30;;;;;;;5.63;1.60;;;22.00;59.80;;;-142.21;71.86;112049.66;5113839;28;20724;-70
2022/10/06 09:34:04;;;;;;;2.43;1.70;;;22.10;58.90;;;-142.21;70.85;112049.66;5114294;28;20188;-70
2022/10/06 09:36:33;;;;;;;3.73;1.93;;;22.20;58.50;;;-142.21;67.34;112049.66;5113947;28;20211;-69
2022/10/06 09:39:01;;;;;;;6.17;1.77;;;22.10;57.40;;;-142.21;67.96;112049.66;5114394;28;20278;-69
2022/10/06 09:41:34;;;;;;;4.07;1.70;;;22.20;57.40;;;-142.21;65.25;112049.66;5113960;28;20200;-70
2022/10/06 09:44:06;;;;;;;5.33;2.20;;;22.30;56.80;;;-142.21;57.26;112049.66;5114019;28;20196;-69
2022/10/06 09:46:40;;;;;;;5.07;1.77;;;22.50;54.80;;;-142.21;50.60;112049.66;5112991;28;20191;-71
2022/10/06 09:49:18;;;;;;;4.43;1.40;;;22.70;53.50;;;-142.21;53.18;112049.66;5114300;28;20188;-71
2022/10/06 09:52:09;;;;;;;5.23;1.80;;;23.00;53.20;;;-142.21;52.37;112049.66;5113871;28;20191;-71
2022/10/06 09:54:37;;;;;;;5.23;1.90;;;23.40;52.70;;;-142.21;51.77;112049.66;5113425;28;20188;-70
2022/10/06 09:57:15;;;;;;;4.87;1.80;;;23.70;52.70;;;-142.21;52.92;112049.66;5114304;28;20389;-69
2022/10/06 09:59:46;;;;;;;5.77;1.70;;;23.90;52.60;;;-142.21;52.54;112049.66;5114155;28;20198;-69
2022/10/06 10:02:35;;;;;;;6.77;2.57;;;24.00;52.40;;;-142.21;53.78;112049.66;5114021;28;20194;-70
2022/10/06 10:05:05;;;;;;;3.80;1.90;;;24.10;52.20;;;-142.21;53.49;112049.66;5113699;28;20199;-70
2022/10/06 10:07:36;;;;;;;4.73;2.00;;;24.30;52.60;;;-142.21;54.64;112049.66;5113105;28;20190;-70
2022/10/06 10:10:25;;;;;;;4.47;1.70;;;24.30;52.60;;;-142.21;51.41;112049.66;5114044;28;20216;-70
2022/10/06 10:12:55;;;;;;;3.10;1.67;;;24.40;51.30;;;-142.21;50.63;112049.66;5106387;28;20233;-70
2022/10/06 10:15:32;;;;;;;3.70;1.90;;;24.30;51.20;;;-142.21;52.25;112049.66;5113151;28;20199;-70
2022/10/06 10:18:06;;;;;;;4.83;2.00;;;24.30;51.40;;;-142.21;53.39;112049.66;5113602;28;20211;-70
2022/10/06 10:20:38;;;;;;;4.50;1.63;;;24.30;51.80;;;-142.21;53.76;112049.66;5113189;28;20272;-69
2022/10/06 10:23:23;;;;;;;4.40;1.90;;;24.30;52.70;;;-142.21;54.65;112049.66;5113789;28;20184;-71
2022/10/06 10:26:21;;;;;;;3.93;1.77;;;24.40;52.30;;;-142.21;54.23;112049.66;5113972;28;20278;-69